sensor_id;sensor_type;location;lat;lon;timestamp;pressure;altitude;pressure_sealevel;temperature;humidity
64886;BME280;51514;52.206;5.114;2023-05-10T00:01:39;100873.63;;;14.91;100.00
64886;BME280;51514;52.206;5.114;2023-05-10T00:04:05;100881.94;;;14.89;100.00
64886;BME280;51514;52.206;5.114;2023-05-10T00:06:31;100879.25;;;14.89;100.00
64886;BME280;51514;52.206;5.114;2023-05-10T00:08:57;100878.56;;;14.87;100.00
64886;BME280;51514;52.206;5.114;2023-05-10T00:11:22;100879.41;;;14.88;100.00
64886;BME280;51514;52.206;5.114;2023-05-10T00:13:47;100880.44;;;14.87;100.00
64886;BME280;51514;52.206;5.114;2023-05-10T00:16:13;100880.44;;;14.87;100.00
64886;BME280;51514;52.206;5.114;2023-05-10T00:18:39;100870.63;;;14.86;100.00
64886;BME280;51514;52.206;5.114;2023-05-10T00:21:05;100875.19;;;14.85;100.00
64886;BME280;51514;52.206;5.114;2023-05-10T00:23:30;100871.81;;;14.83;100.00
64886;BME280;51514;52.206;5.114;2023-05-10T00:25:56;100876.63;;;14.81;100.00
64886;BME280;51514;52.206;5.114;2023-05-10T00:28:21;100883.25;;;14.79;100.00
64886;BME280;51514;52.206;5.114;2023-05-10T00:30:47;100887.16;;;14.76;100.00
64886;BME280;51514;52.206;5.114;2023-05-10T00:33:12;100873.78;;;14.75;100.00
64886;BME280;51514;52.206;5.114;2023-05-10T00:35:37;100882.09;;;14.73;100.00
64886;BME280;51514;52.206;5.114;2023-05-10T00:38:03;100885.00;;;14.72;100.00
64886;BME280;51514;52.206;5.114;2023-05-10T00:40:28;100893.34;;;14.70;100.00
64886;BME280;51514;52.206;5.114;2023-05-10T00:42:55;100890.81;;;14.69;100.00
64886;BME280;51514;52.206;5.114;2023-05-10T00:45:21;100882.00;;;14.67;100.00
64886;BME280;51514;52.206;5.114;2023-05-10T00:47:46;100885.94;;;14.64;100.00
64886;BME280;51514;52.206;5.114;2023-05-10T00:50:11;100891.53;;;14.63;100.00
64886;BME280;51514;52.206;5.114;2023-05-10T00:52:37;100894.06;;;14.64;100.00
64886;BME280;51514;52.206;5.114;2023-05-10T00:55:03;100893.22;;;14.64;100.00
64886;BME280;51514;52.206;5.114;2023-05-10T00:57:29;100886.13;;;14.63;100.00
64886;BME280;51514;52.206;5.114;2023-05-10T00:59:54;100897.81;;;14.63;100.00
64886;BME280;51514;52.206;5.114;2023-05-10T01:02:19;100892.94;;;14.58;100.00
64886;BME280;51514;52.206;5.114;2023-05-10T01:04:45;100895.50;;;14.60;100.00
64886;BME280;51514;52.206;5.114;2023-05-10T01:07:10;100893.81;;;14.59;100.00
64886;BME280;51514;52.206;5.114;2023-05-10T01:09:36;100896.03;;;14.55;100.00
64886;BME280;51514;52.206;5.114;2023-05-10T01:12:01;100889.44;;;14.50;100.00
64886;BME280;51514;52.206;5.114;2023-05-10T01:14:28;100895.94;;;14.49;100.00
64886;BME280;51514;52.206;5.114;2023-05-10T01:16:54;100898.44;;;14.50;100.00
64886;BME280;51514;52.206;5.114;2023-05-10T01:19:22;100894.50;;;14.53;100.00
64886;BME280;51514;52.206;5.114;2023-05-10T01:21:50;100891.44;;;14.56;100.00
64886;BME280;51514;52.206;5.114;2023-05-10T01:27:07;100887.34;;;14.60;100.00
64886;BME280;51514;52.206;5.114;2023-05-10T01:35:29;100890.34;;;14.65;100.00
64886;BME280;51514;52.206;5.114;2023-05-10T01:38:04;100884.06;;;14.65;100.00
64886;BME280;51514;52.206;5.114;2023-05-10T01:40:39;100891.19;;;14.66;100.00
64886;BME280;51514;52.206;5.114;2023-05-10T01:43:11;100899.13;;;14.67;100.00
64886;BME280;51514;52.206;5.114;2023-05-10T01:45:52;100893.72;;;14.67;100.00
64886;BME280;51514;52.206;5.114;2023-05-10T01:48:20;100896.91;;;14.71;100.00
64886;BME280;51514;52.206;5.114;2023-05-10T01:50:48;100896.25;;;14.69;100.00
64886;BME280;51514;52.206;5.114;2023-05-10T01:53:18;100899.13;;;14.67;100.00
64886;BME280;51514;52.206;5.114;2023-05-10T01:55:52;100903.53;;;14.68;100.00
64886;BME280;51514;52.206;5.114;2023-05-10T01:58:27;100904.56;;;14.67;100.00
64886;BME280;51514;52.206;5.114;2023-05-10T02:00:55;100895.41;;;14.68;100.00
64886;BME280;51514;52.206;5.114;2023-05-10T02:03:23;100903.53;;;14.68;100.00
64886;BME280;51514;52.206;5.114;2023-05-10T02:05:50;100905.59;;;14.66;100.00
64886;BME280;51514;52.206;5.114;2023-05-10T02:08:17;100906.44;;;14.67;100.00
64886;BME280;51514;52.206;5.114;2023-05-10T02:10:45;100907.94;;;14.69;100.00
64886;BME280;51514;52.206;5.114;2023-05-10T02:13:12;100909.63;;;14.70;100.00
64886;BME280;51514;52.206;5.114;2023-05-10T02:15:39;100916.72;;;14.71;100.00
64886;BME280;51514;52.206;5.114;2023-05-10T02:18:05;100913.56;;;14.68;100.00
64886;BME280;51514;52.206;5.114;2023-05-10T02:20:32;100922.53;;;14.68;100.00
64886;BME280;51514;52.206;5.114;2023-05-10T02:22:59;100918.13;;;14.67;100.00
64886;BME280;51514;52.206;5.114;2023-05-10T02:25:27;100928.31;;;14.65;100.00
64886;BME280;51514;52.206;5.114;2023-05-10T02:27:55;100923.25;;;14.62;100.00
64886;BME280;51514;52.206;5.114;2023-05-10T02:30:22;100927.47;;;14.65;100.00
64886;BME280;51514;52.206;5.114;2023-05-10T02:32:49;100928.31;;;14.65;100.00
64886;BME280;51514;52.206;5.114;2023-05-10T02:35:16;100929.34;;;14.64;100.00
64886;BME280;51514;52.206;5.114;2023-05-10T02:37:42;100925.78;;;14.64;100.00
64886;BME280;51514;52.206;5.114;2023-05-10T02:40:10;100923.66;;;14.59;100.00
64886;BME280;51514;52.206;5.114;2023-05-10T02:42:37;100922.97;;;14.57;100.00
64886;BME280;51514;52.206;5.114;2023-05-10T02:45:08;100923.34;;;14.54;100.00
64886;BME280;51514;52.206;5.114;2023-05-10T02:47:35;100936.63;;;14.49;100.00
64886;BME280;51514;52.206;5.114;2023-05-10T02:50:01;100938.66;;;14.47;100.00
64886;BME280;51514;52.206;5.114;2023-05-10T02:52:30;100931.06;;;14.42;100.00
64886;BME280;51514;52.206;5.114;2023-05-10T02:55:01;100933.94;;;14.41;100.00
64886;BME280;51514;52.206;5.114;2023-05-10T02:57:32;100932.44;;;14.38;100.00
64886;BME280;51514;52.206;5.114;2023-05-10T02:59:58;100927.81;;;14.39;100.00
64886;BME280;51514;52.206;5.114;2023-05-10T03:02:25;100934.97;;;14.40;100.00
64886;BME280;51514;52.206;5.114;2023-05-10T03:04:51;100928.88;;;14.38;100.00
64886;BME280;51514;52.206;5.114;2023-05-10T03:07:17;100927.53;;;14.34;100.00
64886;BME280;51514;52.206;5.114;2023-05-10T03:09:44;100926.88;;;14.32;100.00
64886;BME280;51514;52.206;5.114;2023-05-10T03:15:03;100928.81;;;14.23;100.00
64886;BME280;51514;52.206;5.114;2023-05-10T03:20:47;100925.91;;;14.24;100.00
64886;BME280;51514;52.206;5.114;2023-05-10T03:25:46;100931.03;;;14.19;100.00
64886;BME280;51514;52.206;5.114;2023-05-10T03:28:14;100934.13;;;14.16;100.00
64886;BME280;51514;52.206;5.114;2023-05-10T03:30:41;100931.59;;;14.15;100.00
64886;BME280;51514;52.206;5.114;2023-05-10T03:33:07;100931.59;;;14.15;100.00
64886;BME280;51514;52.206;5.114;2023-05-10T03:35:33;100942.44;;;14.15;100.00
64886;BME280;51514;52.206;5.114;2023-05-10T03:37:58;100941.59;;;14.14;100.00
64886;BME280;51514;52.206;5.114;2023-05-10T03:40:24;100945.31;;;14.13;100.00
64886;BME280;51514;52.206;5.114;2023-05-10T03:42:50;100943.13;;;14.09;100.00
64886;BME280;51514;52.206;5.114;2023-05-10T03:45:15;100953.50;;;14.05;100.00
64886;BME280;51514;52.206;5.114;2023-05-10T03:47:41;100947.41;;;14.03;100.00
64886;BME280;51514;52.206;5.114;2023-05-10T03:50:06;100949.94;;;14.05;100.00
64886;BME280;51514;52.206;5.114;2023-05-10T03:52:32;100951.81;;;14.04;100.00
64886;BME280;51514;52.206;5.114;2023-05-10T03:54:58;100947.88;;;14.07;100.00
64886;BME280;51514;52.206;5.114;2023-05-10T03:57:23;100952.66;;;14.05;100.00
64886;BME280;51514;52.206;5.114;2023-05-10T03:59:48;100953.50;;;14.05;100.00
64886;BME280;51514;52.206;5.114;2023-05-10T04:02:14;100949.09;;;14.04;100.00
64886;BME280;51514;52.206;5.114;2023-05-10T04:04:39;100962.16;;;14.01;100.00
64886;BME280;51514;52.206;5.114;2023-05-10T04:07:05;100949.28;;;14.03;100.00
64886;BME280;51514;52.206;5.114;2023-05-10T04:09:30;100953.00;;;14.02;100.00
64886;BME280;51514;52.206;5.114;2023-05-10T04:11:55;100954.53;;;14.04;100.00
64886;BME280;51514;52.206;5.114;2023-05-10T04:14:21;100953.97;;;14.09;100.00
64886;BME280;51514;52.206;5.114;2023-05-10T04:16:46;100961.09;;;14.10;100.00
64886;BME280;51514;52.206;5.114;2023-05-10T04:19:12;100955.50;;;14.11;100.00
64886;BME280;51514;52.206;5.114;2023-05-10T04:21:37;100960.75;;;14.13;100.00
64886;BME280;51514;52.206;5.114;2023-05-10T04:24:03;100964.75;;;14.17;100.00
64886;BME280;51514;52.206;5.114;2023-05-10T04:26:28;100963.75;;;14.18;100.00
64886;BME280;51514;52.206;5.114;2023-05-10T04:28:53;100960.84;;;14.19;100.00
64886;BME280;51514;52.206;5.114;2023-05-10T04:31:18;100966.09;;;14.21;100.00
64886;BME280;51514;52.206;5.114;2023-05-10T04:33:44;100964.59;;;14.18;100.00
64886;BME280;51514;52.206;5.114;2023-05-10T04:36:09;100967.69;;;14.15;100.00
64886;BME280;51514;52.206;5.114;2023-05-10T04:38:35;100975.16;;;14.13;100.00
64886;BME280;51514;52.206;5.114;2023-05-10T04:41:07;100972.25;;;14.15;100.00
64886;BME280;51514;52.206;5.114;2023-05-10T04:43:33;100966.84;;;14.15;100.00
64886;BME280;51514;52.206;5.114;2023-05-10T04:45:59;100965.81;;;14.16;100.00
64886;BME280;51514;52.206;5.114;2023-05-10T04:48:24;100968.53;;;14.16;100.00
64886;BME280;51514;52.206;5.114;2023-05-10T04:50:49;100969.84;;;14.20;100.00
64886;BME280;51514;52.206;5.114;2023-05-10T04:53:15;100964.41;;;14.20;100.00
64886;BME280;51514;52.206;5.114;2023-05-10T04:55:40;100959.84;;;14.20;100.00
64886;BME280;51514;52.206;5.114;2023-05-10T04:58:05;100962.19;;;14.23;100.00
64886;BME280;51514;52.206;5.114;2023-05-10T05:00:31;100977.28;;;14.26;100.00
64886;BME280;51514;52.206;5.114;2023-05-10T05:02:56;100981.84;;;14.25;100.00
64886;BME280;51514;52.206;5.114;2023-05-10T05:05:22;100983.91;;;14.23;100.00
64886;BME280;51514;52.206;5.114;2023-05-10T05:07:47;100988.81;;;14.20;100.00
64886;BME280;51514;52.206;5.114;2023-05-10T05:10:12;100988.34;;;14.16;100.00
64886;BME280;51514;52.206;5.114;2023-05-10T05:12:38;100986.84;;;14.14;100.00
64886;BME280;51514;52.206;5.114;2023-05-10T05:15:03;100998.88;;;14.11;100.00
64886;BME280;51514;52.206;5.114;2023-05-10T05:17:32;101010.06;;;14.08;100.00
64886;BME280;51514;52.206;5.114;2023-05-10T05:19:57;100998.22;;;14.09;100.00
64886;BME280;51514;52.206;5.114;2023-05-10T05:22:22;100998.22;;;14.09;100.00
64886;BME280;51514;52.206;5.114;2023-05-10T05:24:56;101005.31;;;14.10;100.00
64886;BME280;51514;52.206;5.114;2023-05-10T05:27:23;101013.81;;;14.07;100.00
64886;BME280;51514;52.206;5.114;2023-05-10T05:29:53;101012.78;;;14.08;100.00
64886;BME280;51514;52.206;5.114;2023-05-10T05:32:18;101016.50;;;14.07;100.00
64886;BME280;51514;52.206;5.114;2023-05-10T05:34:45;101020.75;;;14.10;100.00
64886;BME280;51514;52.206;5.114;2023-05-10T05:37:18;101016.72;;;14.06;100.00
64886;BME280;51514;52.206;5.114;2023-05-10T05:39:43;101022.78;;;14.08;100.00
64886;BME280;51514;52.206;5.114;2023-05-10T05:42:10;101019.78;;;14.03;100.00
64886;BME280;51514;52.206;5.114;2023-05-10T05:44:35;101029.78;;;14.02;100.00
64886;BME280;51514;52.206;5.114;2023-05-10T05:47:00;101029.78;;;14.02;100.00
64886;BME280;51514;52.206;5.114;2023-05-10T05:49:26;101027.75;;;14.04;100.00
64886;BME280;51514;52.206;5.114;2023-05-10T05:51:51;101036.88;;;14.03;100.00
64886;BME280;51514;52.206;5.114;2023-05-10T05:54:16;101035.19;;;14.02;100.00
64886;BME280;51514;52.206;5.114;2023-05-10T05:56:42;101034.00;;;14.05;100.00
64886;BME280;51514;52.206;5.114;2023-05-10T05:59:07;101034.19;;;14.03;100.00
64886;BME280;51514;52.206;5.114;2023-05-10T06:01:33;101039.44;;;14.05;100.00
64886;BME280;51514;52.206;5.114;2023-05-10T06:03:58;101038.94;;;14.01;100.00
64886;BME280;51514;52.206;5.114;2023-05-10T06:06:23;101049.78;;;14.01;100.00
64886;BME280;51514;52.206;5.114;2023-05-10T06:08:48;101042.31;;;14.03;100.00
64886;BME280;51514;52.206;5.114;2023-05-10T06:11:14;101045.69;;;14.05;100.00
64886;BME280;51514;52.206;5.114;2023-05-10T06:13:39;101049.25;;;14.06;100.00
64886;BME280;51514;52.206;5.114;2023-05-10T06:16:05;101046.53;;;14.06;100.00
64886;BME280;51514;52.206;5.114;2023-05-10T06:18:30;101043.28;;;14.10;100.00
64886;BME280;51514;52.206;5.114;2023-05-10T06:20:56;101054.63;;;14.14;100.00
64886;BME280;51514;52.206;5.114;2023-05-10T06:23:22;101057.16;;;14.15;100.00
64886;BME280;51514;52.206;5.114;2023-05-10T06:25:48;101049.88;;;14.16;100.00
64886;BME280;51514;52.206;5.114;2023-05-10T06:28:13;101040.53;;;14.18;100.00
64886;BME280;51514;52.206;5.114;2023-05-10T06:30:39;101044.25;;;14.17;100.00
64886;BME280;51514;52.206;5.114;2023-05-10T06:33:04;101051.03;;;14.21;100.00
64886;BME280;51514;52.206;5.114;2023-05-10T06:35:30;101052.38;;;14.25;100.00
64886;BME280;51514;52.206;5.114;2023-05-10T06:37:56;101059.78;;;14.32;100.00
64886;BME280;51514;52.206;5.114;2023-05-10T06:43:12;101048.75;;;14.41;100.00
64886;BME280;51514;52.206;5.114;2023-05-10T06:45:38;101056.03;;;14.41;100.00
64886;BME280;51514;52.206;5.114;2023-05-10T06:48:03;101056.72;;;14.43;100.00
64886;BME280;51514;52.206;5.114;2023-05-10T06:50:28;101056.72;;;14.43;100.00
64886;BME280;51514;52.206;5.114;2023-05-10T06:56:06;101061.22;;;14.50;100.00
64886;BME280;51514;52.206;5.114;2023-05-10T06:58:31;101061.22;;;14.50;100.00
64886;BME280;51514;52.206;5.114;2023-05-10T07:01:15;101063.75;;;14.52;100.00
64886;BME280;51514;52.206;5.114;2023-05-10T07:03:41;101067.50;;;14.51;100.00
64886;BME280;51514;52.206;5.114;2023-05-10T07:06:06;101059.19;;;14.52;100.00
64886;BME280;51514;52.206;5.114;2023-05-10T07:08:33;101068.84;;;14.55;100.00
64886;BME280;51514;52.206;5.114;2023-05-10T07:11:03;101068.50;;;14.58;100.00
64886;BME280;51514;52.206;5.114;2023-05-10T07:13:29;101080.38;;;14.57;100.00
64886;BME280;51514;52.206;5.114;2023-05-10T07:15:55;101084.09;;;14.56;100.00
64886;BME280;51514;52.206;5.114;2023-05-10T07:18:20;101079.69;;;14.55;100.00
64886;BME280;51514;52.206;5.114;2023-05-10T07:20:46;101088.84;;;14.54;100.00
64886;BME280;51514;52.206;5.114;2023-05-10T07:23:11;101086.16;;;14.54;100.00
64886;BME280;51514;52.206;5.114;2023-05-10T07:25:36;101083.44;;;14.54;100.00
64886;BME280;51514;52.206;5.114;2023-05-10T07:28:02;101082.59;;;14.53;100.00
64886;BME280;51514;52.206;5.114;2023-05-10T07:30:28;101088.50;;;14.57;100.00
64886;BME280;51514;52.206;5.114;2023-05-10T07:32:53;101091.22;;;14.57;100.00
64886;BME280;51514;52.206;5.114;2023-05-10T07:35:18;101100.03;;;14.59;100.00
64886;BME280;51514;52.206;5.114;2023-05-10T07:37:44;101104.44;;;14.60;100.00
64886;BME280;51514;52.206;5.114;2023-05-10T07:40:09;101106.59;;;14.65;100.00
64886;BME280;51514;52.206;5.114;2023-05-10T07:42:34;101105.75;;;14.64;100.00
64886;BME280;51514;52.206;5.114;2023-05-10T07:45:00;101113.72;;;14.66;100.00
64886;BME280;51514;52.206;5.114;2023-05-10T07:47:25;101105.41;;;14.67;100.00
64886;BME280;51514;52.206;5.114;2023-05-10T07:49:51;101115.59;;;14.65;99.80
64886;BME280;51514;52.206;5.114;2023-05-10T07:52:16;101112.88;;;14.65;99.62
64886;BME280;51514;52.206;5.114;2023-05-10T07:54:41;101118.31;;;14.65;99.35
64886;BME280;51514;52.206;5.114;2023-05-10T07:57:07;101114.56;;;14.66;99.24
64886;BME280;51514;52.206;5.114;2023-05-10T07:59:32;101112.53;;;14.68;99.02
64886;BME280;51514;52.206;5.114;2023-05-10T08:01:58;101111.50;;;14.69;99.76
64886;BME280;51514;52.206;5.114;2023-05-10T08:04:23;101106.72;;;14.71;99.21
64886;BME280;51514;52.206;5.114;2023-05-10T08:06:49;101111.13;;;14.72;99.57
64886;BME280;51514;52.206;5.114;2023-05-10T08:09:14;101125.53;;;14.73;98.96
64886;BME280;51514;52.206;5.114;2023-05-10T08:11:40;101121.47;;;14.77;98.67
64886;BME280;51514;52.206;5.114;2023-05-10T08:14:06;101120.25;;;14.79;99.39
64886;BME280;51514;52.206;5.114;2023-05-10T08:16:31;101130.41;;;14.85;99.64
64886;BME280;51514;52.206;5.114;2023-05-10T08:18:57;101129.69;;;14.91;99.91
64886;BME280;51514;52.206;5.114;2023-05-10T08:21:22;101134.75;;;14.94;99.12
64886;BME280;51514;52.206;5.114;2023-05-10T08:23:48;101135.72;;;15.02;99.40
64886;BME280;51514;52.206;5.114;2023-05-10T08:26:14;101137.03;;;15.06;98.75
64886;BME280;51514;52.206;5.114;2023-05-10T08:28:39;101146.16;;;15.13;98.77
64886;BME280;51514;52.206;5.114;2023-05-10T08:31:05;101152.72;;;15.18;98.12
64886;BME280;51514;52.206;5.114;2023-05-10T08:33:30;101146.09;;;15.21;97.88
64886;BME280;51514;52.206;5.114;2023-05-10T08:35:56;101150.34;;;15.23;97.96
64886;BME280;51514;52.206;5.114;2023-05-10T08:38:21;101153.06;;;15.23;97.06
64886;BME280;51514;52.206;5.114;2023-05-10T08:40:49;101158.00;;;15.20;97.96
64886;BME280;51514;52.206;5.114;2023-05-10T08:43:15;101160.19;;;15.24;97.92
64886;BME280;51514;52.206;5.114;2023-05-10T08:45:43;101160.34;;;15.23;97.91
64886;BME280;51514;52.206;5.114;2023-05-10T08:48:10;101165.63;;;15.24;96.07
64886;BME280;51514;52.206;5.114;2023-05-10T08:50:38;101170.56;;;15.21;96.77
64886;BME280;51514;52.206;5.114;2023-05-10T08:53:14;101162.22;;;15.22;97.55
64886;BME280;51514;52.206;5.114;2023-05-10T08:55:40;101169.19;;;15.25;96.82
64886;BME280;51514;52.206;5.114;2023-05-10T08:58:07;101172.53;;;15.27;96.44
64886;BME280;51514;52.206;5.114;2023-05-10T09:00:33;101173.88;;;15.31;95.88
64886;BME280;51514;52.206;5.114;2023-05-10T09:03:01;101172.50;;;15.35;95.16
64886;BME280;51514;52.206;5.114;2023-05-10T09:05:27;101168.19;;;15.41;94.49
64886;BME280;51514;52.206;5.114;2023-05-10T09:07:53;101161.06;;;15.40;95.44
64886;BME280;51514;52.206;5.114;2023-05-10T09:10:19;101174.47;;;15.41;95.17
64886;BME280;51514;52.206;5.114;2023-05-10T09:12:45;101173.13;;;15.37;93.91
64886;BME280;51514;52.206;5.114;2023-05-10T09:15:11;101164.53;;;15.48;93.90
64886;BME280;51514;52.206;5.114;2023-05-10T09:17:38;101174.66;;;15.62;94.84
64886;BME280;51514;52.206;5.114;2023-05-10T09:20:04;101176.28;;;15.72;95.80
64886;BME280;51514;52.206;5.114;2023-05-10T09:22:30;101176.19;;;15.80;93.06
64886;BME280;51514;52.206;5.114;2023-05-10T09:25:06;101178.00;;;15.87;93.27
64886;BME280;51514;52.206;5.114;2023-05-10T09:27:35;101185.59;;;15.92;92.78
64886;BME280;51514;52.206;5.114;2023-05-10T09:30:01;101180.13;;;15.92;93.38
64886;BME280;51514;52.206;5.114;2023-05-10T09:32:41;101184.09;;;15.89;92.29
64886;BME280;51514;52.206;5.114;2023-05-10T09:35:07;101180.91;;;15.86;89.72
64886;BME280;51514;52.206;5.114;2023-05-10T09:37:33;101187.66;;;15.90;91.39
64886;BME280;51514;52.206;5.114;2023-05-10T09:39:58;101187.00;;;15.88;92.47
64886;BME280;51514;52.206;5.114;2023-05-10T09:42:23;101194.13;;;15.89;92.08
64886;BME280;51514;52.206;5.114;2023-05-10T09:44:49;101196.47;;;15.92;93.47
64886;BME280;51514;52.206;5.114;2023-05-10T09:47:18;101196.75;;;15.97;93.43
64886;BME280;51514;52.206;5.114;2023-05-10T09:49:44;101197.78;;;15.96;94.55
64886;BME280;51514;52.206;5.114;2023-05-10T09:52:09;101199.75;;;16.02;92.71
64886;BME280;51514;52.206;5.114;2023-05-10T09:54:35;101196.69;;;16.05;93.76
64886;BME280;51514;52.206;5.114;2023-05-10T09:57:02;101203.81;;;16.06;92.77
64886;BME280;51514;52.206;5.114;2023-05-10T09:59:29;101204.84;;;16.05;92.59
64886;BME280;51514;52.206;5.114;2023-05-10T10:01:56;101198.06;;;16.01;92.12
64886;BME280;51514;52.206;5.114;2023-05-10T10:04:22;101202.69;;;16.00;91.88
64886;BME280;51514;52.206;5.114;2023-05-10T10:07:01;101202.47;;;16.02;92.12
64886;BME280;51514;52.206;5.114;2023-05-10T10:09:28;101203.81;;;16.06;91.48
64886;BME280;51514;52.206;5.114;2023-05-10T10:11:53;101206.44;;;16.14;90.92
64886;BME280;51514;52.206;5.114;2023-05-10T10:14:19;101206.75;;;16.19;89.58
64886;BME280;51514;52.206;5.114;2023-05-10T10:16:45;101210.56;;;16.25;89.75
64886;BME280;51514;52.206;5.114;2023-05-10T10:19:11;101208.16;;;16.30;89.49
64886;BME280;51514;52.206;5.114;2023-05-10T10:21:37;101214.34;;;16.38;88.95
64886;BME280;51514;52.206;5.114;2023-05-10T10:24:05;101221.75;;;16.44;89.65
64886;BME280;51514;52.206;5.114;2023-05-10T10:26:35;101216.59;;;16.50;88.13
64886;BME280;51514;52.206;5.114;2023-05-10T10:29:23;101216.22;;;16.53;90.26
64886;BME280;51514;52.206;5.114;2023-05-10T10:34:39;101216.03;;;16.69;89.90
64886;BME280;51514;52.206;5.114;2023-05-10T10:37:06;101219.22;;;16.72;90.61
64886;BME280;51514;52.206;5.114;2023-05-10T10:39:32;101214.25;;;16.76;89.45
64886;BME280;51514;52.206;5.114;2023-05-10T10:41:58;101217.25;;;16.81;89.68
64886;BME280;51514;52.206;5.114;2023-05-10T10:49:24;101219.22;;;16.87;87.67
64886;BME280;51514;52.206;5.114;2023-05-10T10:55:16;101223.72;;;16.80;86.82
64886;BME280;51514;52.206;5.114;2023-05-10T10:57:50;101226.44;;;16.80;87.62
64886;BME280;51514;52.206;5.114;2023-05-10T11:00:27;101230.78;;;16.74;87.49
64886;BME280;51514;52.206;5.114;2023-05-10T11:07:59;101230.41;;;16.63;89.12
64886;BME280;51514;52.206;5.114;2023-05-10T11:10:25;101223.63;;;16.59;88.87
64886;BME280;51514;52.206;5.114;2023-05-10T11:13:05;101230.75;;;16.60;88.26
64886;BME280;51514;52.206;5.114;2023-05-10T11:15:32;101225.81;;;16.63;88.56
64886;BME280;51514;52.206;5.114;2023-05-10T11:17:58;101240.28;;;16.64;87.50
64886;BME280;51514;52.206;5.114;2023-05-10T11:20:27;101228.38;;;16.65;87.45
64886;BME280;51514;52.206;5.114;2023-05-10T11:23:10;101239.03;;;16.66;87.47
64886;BME280;51514;52.206;5.114;2023-05-10T11:25:41;101234.66;;;16.65;86.24
64886;BME280;51514;52.206;5.114;2023-05-10T11:28:06;101245.91;;;16.62;85.76
64886;BME280;51514;52.206;5.114;2023-05-10T11:30:31;101243.53;;;16.59;86.09
64886;BME280;51514;52.206;5.114;2023-05-10T11:32:57;101242.00;;;16.57;87.21
64886;BME280;51514;52.206;5.114;2023-05-10T11:35:23;101243.44;;;16.53;85.40
64886;BME280;51514;52.206;5.114;2023-05-10T11:37:48;101240.25;;;16.49;85.12
64886;BME280;51514;52.206;5.114;2023-05-10T11:40:13;101244.84;;;16.49;86.00
64886;BME280;51514;52.206;5.114;2023-05-10T11:42:39;101247.94;;;16.46;85.88
64886;BME280;51514;52.206;5.114;2023-05-10T11:45:05;101246.06;;;16.46;86.41
64886;BME280;51514;52.206;5.114;2023-05-10T11:47:31;101246.91;;;16.47;86.16
64886;BME280;51514;52.206;5.114;2023-05-10T11:49:57;101244.00;;;16.48;88.33
64886;BME280;51514;52.206;5.114;2023-05-10T11:52:23;101236.50;;;16.50;88.42
64886;BME280;51514;52.206;5.114;2023-05-10T11:54:54;101245.50;;;16.51;86.66
64886;BME280;51514;52.206;5.114;2023-05-10T11:57:26;101245.31;;;16.52;86.71
64886;BME280;51514;52.206;5.114;2023-05-10T11:59:56;101248.72;;;16.54;86.91
64886;BME280;51514;52.206;5.114;2023-05-10T12:02:21;101249.56;;;16.55;86.44
64886;BME280;51514;52.206;5.114;2023-05-10T12:04:47;101258.81;;;16.60;88.00
64886;BME280;51514;52.206;5.114;2023-05-10T12:07:12;101250.50;;;16.62;87.32
64886;BME280;51514;52.206;5.114;2023-05-10T12:09:43;101245.91;;;16.62;87.63
64886;BME280;51514;52.206;5.114;2023-05-10T12:12:08;101252.22;;;16.63;86.63
64886;BME280;51514;52.206;5.114;2023-05-10T12:14:34;101254.53;;;16.66;87.18
64886;BME280;51514;52.206;5.114;2023-05-10T12:17:00;101249.38;;;16.71;86.80
64886;BME280;51514;52.206;5.114;2023-05-10T12:19:25;101251.44;;;16.69;87.12
64886;BME280;51514;52.206;5.114;2023-05-10T12:21:51;101254.16;;;16.69;87.38
64886;BME280;51514;52.206;5.114;2023-05-10T12:24:16;101255.19;;;16.68;87.69
64886;BME280;51514;52.206;5.114;2023-05-10T12:26:43;101259.41;;;16.70;88.35
64886;BME280;51514;52.206;5.114;2023-05-10T12:29:18;101258.50;;;16.63;88.51
64886;BME280;51514;52.206;5.114;2023-05-10T12:34:29;101257.13;;;16.59;88.93
64886;BME280;51514;52.206;5.114;2023-05-10T12:36:55;101257.50;;;16.56;89.36
64886;BME280;51514;52.206;5.114;2023-05-10T12:39:21;101259.00;;;16.59;88.82
64886;BME280;51514;52.206;5.114;2023-05-10T12:41:46;101257.50;;;16.56;88.09
64886;BME280;51514;52.206;5.114;2023-05-10T12:44:11;101261.47;;;16.54;88.56
64886;BME280;51514;52.206;5.114;2023-05-10T12:46:37;101260.63;;;16.53;88.75
64886;BME280;51514;52.206;5.114;2023-05-10T12:49:02;101269.53;;;16.47;89.32
64886;BME280;51514;52.206;5.114;2023-05-10T12:51:28;101275.53;;;16.42;89.93
64886;BME280;51514;52.206;5.114;2023-05-10T12:53:53;101277.47;;;16.34;89.22
64886;BME280;51514;52.206;5.114;2023-05-10T12:56:19;101276.00;;;16.31;90.21
64886;BME280;51514;52.206;5.114;2023-05-10T12:58:47;101282.47;;;16.30;90.58
64886;BME280;51514;52.206;5.114;2023-05-10T13:01:13;101288.09;;;16.29;90.71
64886;BME280;51514;52.206;5.114;2023-05-10T13:03:39;101291.00;;;16.27;90.32
64886;BME280;51514;52.206;5.114;2023-05-10T13:06:04;101292.19;;;16.25;90.64
64886;BME280;51514;52.206;5.114;2023-05-10T13:08:30;101295.94;;;16.24;91.44
64886;BME280;51514;52.206;5.114;2023-05-10T13:10:59;101305.63;;;16.26;91.18
64886;BME280;51514;52.206;5.114;2023-05-10T13:13:24;101293.91;;;16.26;90.86
64886;BME280;51514;52.206;5.114;2023-05-10T13:15:50;101298.88;;;16.22;90.58
64886;BME280;51514;52.206;5.114;2023-05-10T13:18:15;101298.50;;;16.25;90.51
64886;BME280;51514;52.206;5.114;2023-05-10T13:20:40;101295.78;;;16.25;89.96
64886;BME280;51514;52.206;5.114;2023-05-10T13:23:06;101293.91;;;16.26;89.50
64886;BME280;51514;52.206;5.114;2023-05-10T13:25:31;101307.16;;;16.29;90.19